Simpson, Louisiana
Current Conditions -  °F | °C
As of 12:58 AM on Tuesday 21 Oct 2014 (Local Time) from KPOE Reporting Station
Clear Clear  
Wind Chill: 60°   Ceiling: Unl
Heat Index: 60°   Visibility: 10mi
Dew Point: 54°   Wind: 3mph
Humidity: 80%   Direction: 60°ENE
Pressure: 30.02"   Gusts: NA
Location:  31.25°N, 93.02°W
Report Text: KPOE 210558Z AUTO 06003KT 10SM CLR 16/12 A3002 RMK AO2 SLP166 T01560121 10189 20133 402530113 57009
Loading
Personal Weather Stations






























Interactive Weather Map
Tropical Storm Tracking
New forecast layout! Learn more

10-Day Weather Forecast

Advertisements
Track Severe Weather on mobile